Time;durP1;ratioP1;P1;durP2;ratioP2;P2;SDS_P1;SDS_P2;PMS_P1;PMS_P2;Temp;Humidity;BMP_temperature;BMP_pressure;BME280_temperature;BME280_humidity;BME280_pressure;Samples;Min_cycle;Max_cycle;Signal;HPM_P1;HPM_P2
2022/02/27 00:00:12;;;;;;;10.03;5.70;;;;;;;-1.72;85.21;99110.34;6276266;28;20230;-74
2022/02/27 00:03:15;;;;;;;8.90;5.33;;;;;;;-1.75;85.27;99106.06;6256186;28;20594;-72
2022/02/27 00:06:17;;;;;;;11.63;5.90;;;;;;;-1.78;85.25;99098.31;6258092;28;20238;-72
2022/02/27 00:09:25;;;;;;;9.57;6.83;;;;;;;-1.75;85.28;99102.59;6266623;28;20233;-72
2022/02/27 00:12:27;;;;;;;14.13;7.80;;;;;;;-1.70;85.07;99098.25;6258793;28;20230;-73
2022/02/27 00:15:29;;;;;;;16.27;7.77;;;;;;;-1.68;85.57;99099.94;6276094;28;20690;-73
2022/02/27 00:18:31;;;;;;;12.60;7.40;;;;;;;-1.64;85.63;99103.38;6258588;28;20233;-72
2022/02/27 00:21:33;;;;;;;12.43;7.23;;;;;;;-1.62;85.77;99099.91;6259477;28;20230;-72
2022/02/27 00:24:35;;;;;;;16.93;8.57;;;;;;;-1.60;85.95;99094.72;6208634;28;20602;-72
2022/02/27 00:27:38;;;;;;;12.50;7.90;;;;;;;-1.58;85.97;99093.81;6256909;28;20724;-72
2022/02/27 00:30:40;;;;;;;15.37;8.30;;;;;;;-1.58;86.27;99091.22;6258327;28;20231;-72
2022/02/27 00:33:45;;;;;;;18.23;9.67;;;;;;;-1.59;86.34;99084.31;6270646;28;20729;-73
2022/02/27 00:36:50;;;;;;;16.10;9.30;;;;;;;-1.57;86.58;99084.31;6256888;28;20454;-72
2022/02/27 00:39:52;;;;;;;16.23;9.93;;;;;;;-1.58;86.45;99090.38;6242495;28;20233;-74
2022/02/27 00:42:54;;;;;;;15.97;9.43;;;;;;;-1.59;86.28;99094.69;6275206;28;20218;-72
2022/02/27 00:45:57;;;;;;;15.00;9.57;;;;;;;-1.57;86.63;99094.66;6274845;28;20734;-72
2022/02/27 00:48:59;;;;;;;18.63;7.80;;;;;;;-1.59;86.71;99089.50;6260054;28;20230;-74
2022/02/27 00:52:01;;;;;;;13.70;9.03;;;;;;;-1.60;86.59;99095.56;6277244;28;20234;-72
2022/02/27 00:55:04;;;;;;;19.47;10.20;;;;;;;-1.60;86.80;99097.31;6258034;28;20230;-72
2022/02/27 00:58:07;;;;;;;17.60;10.00;;;;;;;-1.63;86.49;99093.00;6275815;28;20242;-72
2022/02/27 01:01:09;;;;;;;18.03;10.77;;;;;;;-1.64;86.79;99093.88;6257810;28;20628;-73
2022/02/27 01:04:12;;;;;;;17.10;10.73;;;;;;;-1.64;86.75;99091.28;6258900;28;20230;-72
2022/02/27 01:07:14;;;;;;;17.73;10.80;;;;;;;-1.65;86.50;99088.72;6240152;28;20223;-72
2022/02/27 01:10:18;;;;;;;16.17;10.67;;;;;;;-1.65;87.01;99094.75;6241614;28;20686;-74
2022/02/27 01:13:20;;;;;;;18.00;10.87;;;;;;;-1.62;87.00;99105.09;6281021;28;20284;-72
2022/02/27 01:16:24;;;;;;;16.97;10.60;;;;;;;-1.57;86.78;99102.44;6262739;28;20230;-72
2022/02/27 01:19:26;;;;;;;16.83;11.07;;;;;;;-1.50;87.15;99098.94;6280500;28;20234;-72
2022/02/27 01:22:28;;;;;;;18.93;11.80;;;;;;;-1.42;86.95;99093.69;6279520;28;20241;-73
2022/02/27 01:25:30;;;;;;;19.97;11.40;;;;;;;-1.35;87.29;99087.56;6279673;28;20266;-72
2022/02/27 01:28:32;;;;;;;19.20;11.20;;;;;;;-1.28;86.82;99084.88;6279535;28;20383;-73
2022/02/27 01:31:34;;;;;;;19.27;11.33;;;;;;;-1.23;86.90;99085.72;6257973;28;20218;-72
2022/02/27 01:34:38;;;;;;;19.43;12.07;;;;;;;-1.17;86.85;99082.19;6258780;28;20576;-72
2022/02/27 01:37:40;;;;;;;18.03;11.30;;;;;;;-1.10;86.66;99086.44;6272514;28;20234;-72
2022/02/27 01:40:42;;;;;;;21.07;12.83;;;;;;;-1.01;87.06;99086.34;6260575;28;20261;-74
2022/02/27 01:43:44;;;;;;;25.33;12.73;;;;;;;-0.82;86.96;99085.25;6279919;28;20283;-73
2022/02/27 01:47:07;;;;;;;23.83;13.67;;;;;;;-0.71;86.54;99086.84;6261314;28;20362;-73
2022/02/27 01:50:10;;;;;;;24.20;14.07;;;;;;;-0.56;85.90;99081.44;6238925;28;20437;-73
2022/02/27 01:53:15;;;;;;;24.37;13.70;;;;;;;-0.52;85.77;99089.16;6279093;28;20245;-74
2022/02/27 01:56:17;;;;;;;27.07;13.10;;;;;;;-0.45;85.52;99085.59;6219451;28;20254;-71
2022/02/27 01:59:20;;;;;;;24.73;13.80;;;;;;;-0.39;85.37;99088.09;6246182;28;20315;-73
2022/02/27 02:02:22;;;;;;;21.93;12.70;;;;;;;-0.35;85.19;99085.47;6279017;28;20233;-73
2022/02/27 02:05:27;;;;;;;17.67;12.13;;;;;;;-0.38;84.96;99081.19;6261135;28;20258;-74
2022/02/27 02:08:29;;;;;;;22.93;13.87;;;;;;;-0.40;84.84;99085.56;6245843;28;20602;-73
2022/02/27 02:11:34;;;;;;;19.40;13.00;;;;;;;-0.42;84.66;99090.75;6278421;28;20729;-72
2022/02/27 02:14:37;;;;;;;19.73;12.73;;;;;;;-0.40;84.49;99094.16;6259605;28;20218;-71
2022/02/27 02:17:41;;;;;;;22.63;13.73;;;;;;;-0.39;84.60;99088.09;6260092;28;20644;-73
2022/02/27 02:20:43;;;;;;;20.10;14.17;;;;;;;-0.34;84.05;99102.75;6276966;28;20287;-74
2022/02/27 02:23:45;;;;;;;26.50;15.73;;;;;;;-0.39;83.95;99090.69;6279614;28;20233;-72
2022/02/27 02:26:52;;;;;;;22.17;14.07;;;;;;;-0.41;84.43;99094.22;6260582;28;20238;-74
2022/02/27 02:29:54;;;;;;;24.03;14.70;;;;;;;-0.44;84.14;99086.47;6278196;28;20230;-73
2022/02/27 02:32:58;;;;;;;20.60;13.77;;;;;;;-0.44;84.21;99087.31;6265795;28;20747;-73
2022/02/27 02:36:00;;;;;;;26.93;15.43;;;;;;;-0.46;83.78;99089.06;6243782;28;20321;-72
2022/02/27 02:39:05;;;;;;;24.53;15.27;;;;;;;-0.45;84.19;99089.94;6241071;28;20233;-74
2022/02/27 02:42:08;;;;;;;27.00;17.67;;;;;;;-0.40;83.99;99098.53;6256006;28;20219;-73
2022/02/27 02:45:14;;;;;;;24.47;15.10;;;;;;;-0.38;83.61;99091.56;6264735;28;20222;-73
2022/02/27 02:48:17;;;;;;;24.50;15.50;;;;;;;-0.37;83.45;99098.47;6265133;28;20221;-74
2022/02/27 02:51:24;;;;;;;23.83;16.37;;;;;;;-0.36;83.56;99100.19;6259257;28;20234;-72
2022/02/27 02:54:26;;;;;;;21.10;14.13;;;;;;;-0.36;83.29;99097.59;6278280;28;20356;-73
2022/02/27 02:57:28;;;;;;;22.47;15.07;;;;;;;-0.38;83.12;99104.53;6277466;28;20725;-73
2022/02/27 03:00:30;;;;;;;22.83;14.93;;;;;;;-0.38;83.30;99107.13;6259378;28;20222;-72
2022/02/27 03:03:36;;;;;;;24.77;14.50;;;;;;;-0.38;83.11;99101.94;6277341;28;20740;-72
2022/02/27 03:06:38;;;;;;;23.30;15.77;;;;;;;-0.38;83.23;99100.19;6276484;28;20624;-73
2022/02/27 03:09:40;;;;;;;24.10;14.87;;;;;;;-0.38;83.02;99105.38;6274820;28;20313;-72
2022/02/27 03:12:42;;;;;;;24.43;15.13;;;;;;;-0.39;83.23;99101.06;6259601;28;20234;-72
2022/02/27 03:15:44;;;;;;;27.30;14.97;;;;;;;-0.38;82.89;99105.38;6276577;28;20229;-73
2022/02/27 03:18:46;;;;;;;23.20;14.07;;;;;;;-0.38;83.12;99097.59;6275648;28;20307;-72
2022/02/27 03:21:48;;;;;;;23.73;14.07;;;;;;;-0.44;82.94;99102.88;6276658;28;20720;-72
2022/02/27 03:24:50;;;;;;;23.97;15.23;;;;;;;-0.47;83.29;99102.06;6259015;28;20230;-72
2022/02/27 03:27:53;;;;;;;27.13;15.27;;;;;;;-0.47;83.34;99095.13;6276829;28;20649;-72
2022/02/27 03:30:55;;;;;;;22.37;14.53;;;;;;;-0.47;83.28;99102.06;6251316;28;20628;-73
2022/02/27 03:33:57;;;;;;;23.03;14.40;;;;;;;-0.48;83.10;99100.34;6235712;28;20739;-73
2022/02/27 03:36:59;;;;;;;25.47;15.07;;;;;;;-0.47;83.07;99097.72;6269023;28;20709;-72
2022/02/27 03:40:01;;;;;;;22.23;13.47;;;;;;;-0.49;83.19;99098.63;6267937;28;20230;-73
2022/02/27 03:43:03;;;;;;;27.97;16.23;;;;;;;-0.50;82.97;99099.53;6258533;28;20710;-73
2022/02/27 03:46:05;;;;;;;25.70;14.90;;;;;;;-0.54;83.16;99101.28;6257621;28;20261;-73
2022/02/27 03:49:08;;;;;;;26.03;15.90;;;;;;;-0.54;83.17;99098.69;6258104;28;20570;-72
2022/02/27 03:52:09;;;;;;;22.47;15.20;;;;;;;-0.52;82.84;99101.28;6258078;28;20295;-73
2022/02/27 03:55:14;;;;;;;26.23;15.90;;;;;;;-0.59;82.75;99099.63;6258362;28;20252;-72
2022/02/27 03:58:17;;;;;;;26.60;16.63;;;;;;;-0.62;83.02;99099.69;6259023;28;20231;-73
2022/02/27 04:01:19;;;;;;;24.50;14.83;;;;;;;-0.67;83.30;99101.47;6258712;28;20620;-73
2022/02/27 04:04:21;;;;;;;25.50;16.20;;;;;;;-0.70;82.84;99107.56;6260096;28;20858;-72
2022/02/27 04:07:23;;;;;;;26.80;17.23;;;;;;;-0.74;82.88;99105.88;6270284;28;20625;-73
2022/02/27 04:10:26;;;;;;;23.53;14.13;;;;;;;-0.84;82.92;99105.13;6244546;28;20245;-72
2022/02/27 04:13:28;;;;;;;22.37;14.87;;;;;;;-0.92;83.27;99108.69;6242096;28;20238;-73
2022/02/27 04:16:30;;;;;;;18.90;12.77;;;;;;;-0.98;83.51;99103.56;6275283;28;20226;-72
2022/02/27 04:19:32;;;;;;;21.33;13.40;;;;;;;-1.03;83.41;99107.94;6275299;28;20651;-72
2022/02/27 04:22:34;;;;;;;22.67;14.30;;;;;;;-1.08;83.66;99102.78;6241988;28;20332;-73
2022/02/27 04:25:36;;;;;;;27.47;14.97;;;;;;;-1.14;83.49;99108.06;6258441;28;20690;-74
2022/02/27 04:28:38;;;;;;;22.37;14.50;;;;;;;-1.15;83.58;99114.09;6241198;28;20229;-71
2022/02/27 04:31:40;;;;;;;25.27;14.97;;;;;;;-1.16;83.55;99109.81;6252886;28;20234;-72
2022/02/27 04:34:42;;;;;;;24.43;15.60;;;;;;;-1.18;83.94;99112.41;6263875;28;20226;-72
2022/02/27 04:37:45;;;;;;;25.73;15.70;;;;;;;-1.20;83.94;99111.56;6232145;28;20235;-73
2022/02/27 04:40:47;;;;;;;23.43;14.47;;;;;;;-1.19;84.05;99115.00;6261081;28;20701;-73
2022/02/27 04:43:50;;;;;;;24.73;15.40;;;;;;;-1.20;83.79;99119.31;6263764;28;20236;-74
2022/02/27 04:46:52;;;;;;;29.27;17.50;;;;;;;-1.18;83.86;99114.13;6279730;28;20311;-73
2022/02/27 04:49:54;;;;;;;31.07;17.47;;;;;;;-1.15;83.92;99116.69;6263289;28;20783;-73
2022/02/27 04:52:56;;;;;;;25.33;16.13;;;;;;;-1.17;84.02;99118.44;6280413;28;20233;-73
2022/02/27 04:55:58;;;;;;;23.27;15.23;;;;;;;-1.15;84.11;99124.47;6279773;28;20283;-73
2022/02/27 04:59:00;;;;;;;22.77;15.03;;;;;;;-1.16;83.95;99114.97;6281183;28;20295;-73
2022/02/27 05:02:02;;;;;;;24.67;13.70;;;;;;;-1.17;84.13;99121.03;6262801;28;20728;-73
2022/02/27 05:05:05;;;;;;;25.33;15.67;;;;;;;-1.19;84.28;99136.59;6262699;28;20606;-74
2022/02/27 05:08:07;;;;;;;24.50;14.00;;;;;;;-1.18;84.33;99134.84;6255147;28;20663;-73
2022/02/27 05:11:09;;;;;;;23.90;15.80;;;;;;;-1.19;84.27;99131.41;6279622;28;20254;-73
2022/02/27 05:14:14;;;;;;;23.27;13.43;;;;;;;-1.20;84.15;99140.03;6280398;28;20222;-73
2022/02/27 05:17:16;;;;;;;28.67;16.53;;;;;;;-1.18;84.35;99153.84;6260383;28;20694;-72
2022/02/27 05:20:18;;;;;;;25.60;15.57;;;;;;;-1.15;84.14;99156.41;6260919;28;20728;-73
2022/02/27 05:23:20;;;;;;;29.30;16.13;;;;;;;-1.12;84.23;99158.13;6279557;28;20230;-73
2022/02/27 05:26:22;;;;;;;28.23;16.73;;;;;;;-1.10;84.23;99158.13;6278030;28;20606;-73
2022/02/27 05:29:24;;;;;;;22.37;14.83;;;;;;;-1.08;84.20;99157.19;6261020;28;20238;-73
2022/02/27 05:32:26;;;;;;;27.30;15.87;;;;;;;-1.08;84.27;99158.94;6275713;28;20241;-73
2022/02/27 05:35:28;;;;;;;29.97;17.73;;;;;;;-1.09;84.17;99160.66;6260848;28;20240;-73
2022/02/27 05:38:30;;;;;;;33.00;19.33;;;;;;;-1.05;84.31;99161.50;6264003;28;20245;-72
2022/02/27 05:41:32;;;;;;;29.50;18.57;;;;;;;-1.04;84.26;99163.22;6277805;28;20767;-73
2022/02/27 05:44:34;;;;;;;26.17;17.23;;;;;;;-1.00;84.17;99162.31;6278825;28;20367;-73
2022/02/27 05:47:37;;;;;;;34.33;17.70;;;;;;;-0.99;84.17;99170.06;6277390;28;20246;-73
2022/02/27 05:50:39;;;;;;;28.40;16.67;;;;;;;-0.99;84.11;99170.06;6278914;28;20815;-73
2022/02/27 05:53:41;;;;;;;24.33;15.30;;;;;;;-1.01;84.00;99174.41;6278257;28;20698;-73
2022/02/27 05:56:43;;;;;;;28.87;16.53;;;;;;;-1.06;84.34;99183.09;6277902;28;20828;-72
2022/02/27 05:59:45;;;;;;;24.30;16.40;;;;;;;-1.07;84.11;99178.78;6260600;28;20221;-72
2022/02/27 06:02:48;;;;;;;25.77;16.60;;;;;;;-1.07;84.33;99173.59;6261357;28;20553;-72
2022/02/27 06:05:50;;;;;;;25.23;16.93;;;;;;;-1.08;84.12;99172.75;6276772;28;20242;-73
2022/02/27 06:08:52;;;;;;;22.43;14.60;;;;;;;-1.06;84.09;99173.59;6240891;28;20629;-73
2022/02/27 06:11:54;;;;;;;29.13;17.33;;;;;;;-1.05;84.11;99175.31;6271940;28;20245;-72
2022/02/27 06:14:56;;;;;;;30.30;17.13;;;;;;;-1.05;84.19;99179.63;6269656;28;20736;-73
2022/02/27 06:17:58;;;;;;;25.47;14.43;;;;;;;-1.07;84.14;99178.78;6277199;28;20234;-73
2022/02/27 06:21:01;;;;;;;24.83;15.00;;;;;;;-1.08;84.28;99180.50;6261028;28;20230;-72
2022/02/27 06:24:03;;;;;;;25.57;15.47;;;;;;;-1.10;84.33;99179.69;6259092;28;20309;-72
2022/02/27 06:27:05;;;;;;;28.67;17.37;;;;;;;-1.12;84.13;99186.63;6259538;28;20585;-72
2022/02/27 06:30:11;;;;;;;26.07;15.93;;;;;;;-1.18;84.36;99179.75;6260930;28;20670;-72
2022/02/27 06:33:13;;;;;;;27.83;16.67;;;;;;;-1.24;84.27;99178.94;6242518;28;20207;-73
2022/02/27 06:36:15;;;;;;;33.00;18.83;;;;;;;-1.23;84.48;99178.09;6256218;28;20246;-72
2022/02/27 06:39:17;;;;;;;29.50;18.10;;;;;;;-1.21;84.65;99176.34;6256237;28;20725;-72
2022/02/27 06:42:19;;;;;;;27.90;16.80;;;;;;;-1.18;84.35;99181.47;6259455;28;20217;-73
2022/02/27 06:45:21;;;;;;;32.03;18.87;;;;;;;-1.19;84.61;99179.75;6257644;28;20792;-73
2022/02/27 06:48:23;;;;;;;29.47;17.20;;;;;;;-1.19;84.18;99187.53;6274859;28;20223;-73
2022/02/27 06:51:25;;;;;;;26.30;15.60;;;;;;;-1.21;84.39;99184.13;6275920;28;20542;-73
2022/02/27 06:54:27;;;;;;;30.93;17.50;;;;;;;-1.23;84.37;99186.72;6259626;28;20745;-73
2022/02/27 06:57:29;;;;;;;30.53;17.63;;;;;;;-1.25;84.09;99195.34;6276852;28;20747;-72
2022/02/27 07:00:32;;;;;;;30.90;18.27;;;;;;;-1.23;84.37;99199.66;6259660;28;20237;-72
2022/02/27 07:03:34;;;;;;;33.03;18.57;;;;;;;-1.18;84.43;99205.66;6258159;28;20218;-73
2022/02/27 07:06:36;;;;;;;27.47;16.90;;;;;;;-1.14;83.95;99202.16;6258360;28;20416;-72
2022/02/27 07:09:39;;;;;;;34.90;20.27;;;;;;;-1.09;83.87;99209.00;6264749;28;20222;-72
2022/02/27 07:12:43;;;;;;;33.93;19.30;;;;;;;-1.06;83.79;99204.69;6275918;28;20225;-73
2022/02/27 07:15:45;;;;;;;28.90;18.03;;;;;;;-1.03;83.52;99211.56;6258179;28;20301;-72
2022/02/27 07:18:51;;;;;;;26.93;17.07;;;;;;;-1.03;83.76;99215.03;6257496;28;20215;-73
2022/02/27 07:21:53;;;;;;;31.87;17.93;;;;;;;-1.04;83.59;99223.66;6275723;28;20222;-73
2022/02/27 07:24:55;;;;;;;27.57;17.93;;;;;;;-1.02;83.54;99221.06;6276074;28;20218;-73
2022/02/27 07:27:57;;;;;;;33.43;19.50;;;;;;;-1.00;83.43;99225.38;6275836;28;20698;-73
2022/02/27 07:30:59;;;;;;;30.67;18.47;;;;;;;-0.98;83.42;99221.00;6276047;28;20226;-73
2022/02/27 07:34:02;;;;;;;37.23;20.77;;;;;;;-0.93;83.32;99223.56;6268230;28;20222;-73
2022/02/27 07:37:04;;;;;;;36.07;21.87;;;;;;;-0.82;83.44;99225.19;6254371;28;20307;-73
2022/02/27 07:40:07;;;;;;;37.13;20.93;;;;;;;-0.66;83.34;99227.59;6249941;28;20230;-73
2022/02/27 07:43:09;;;;;;;36.63;21.43;;;;;;;-0.55;82.68;99224.03;6255984;28;20218;-72
2022/02/27 07:46:11;;;;;;;35.23;20.63;;;;;;;-0.44;82.25;99226.50;6275918;28;20237;-72
2022/02/27 07:49:14;;;;;;;37.33;21.20;;;;;;;-0.35;81.61;99223.78;6258667;28;20302;-73
2022/02/27 07:52:16;;;;;;;33.13;20.37;;;;;;;-0.19;81.02;99220.13;6257420;28;20234;-73
2022/02/27 07:55:19;;;;;;;33.03;20.93;;;;;;;-0.08;80.79;99217.38;6257690;28;20234;-73
2022/02/27 07:58:21;;;;;;;31.27;20.33;;;;;;;-0.01;80.44;99225.09;6257214;28;20718;-73
2022/02/27 08:01:24;;;;;;;35.73;19.47;;;;;;;0.08;79.81;99228.44;6274681;28;20325;-73
2022/02/27 08:04:27;;;;;;;36.10;21.90;;;;;;;0.22;78.41;99229.94;6256400;28;20230;-72
2022/02/27 08:07:29;;;;;;;34.73;21.10;;;;;;;0.42;78.50;99236.59;6269349;28;20724;-73
2022/02/27 08:10:31;;;;;;;34.97;20.50;;;;;;;0.59;77.15;99240.69;6235958;28;20299;-73
2022/02/27 08:13:37;;;;;;;36.43;20.57;;;;;;;0.71;76.51;99230.06;6275673;28;20241;-73
2022/02/27 08:16:39;;;;;;;33.97;19.93;;;;;;;0.73;76.00;99238.69;6206956;28;20699;-73
2022/02/27 08:19:41;;;;;;;38.90;19.90;;;;;;;0.79;76.32;99237.75;6269903;28;20226;-73
2022/02/27 08:22:43;;;;;;;29.30;18.80;;;;;;;0.99;75.49;99234.84;6274362;28;20226;-73
2022/02/27 08:25:45;;;;;;;29.57;18.37;;;;;;;1.09;75.55;99244.19;6275045;28;20257;-74
2022/02/27 08:28:47;;;;;;;33.37;19.73;;;;;;;1.11;75.92;99245.00;6237329;28;20231;-75
2022/02/27 08:31:49;;;;;;;30.17;17.93;;;;;;;1.39;75.15;99241.03;6219238;28;20223;-75
2022/02/27 08:34:53;;;;;;;28.27;16.13;;;;;;;1.37;71.38;99241.94;6255198;28;20226;-73
2022/02/27 08:37:55;;;;;;;24.30;16.17;;;;;;;1.44;71.06;99240.94;6248697;28;20231;-73
2022/02/27 08:40:57;;;;;;;28.33;16.97;;;;;;;1.69;70.94;99247.41;6275803;28;20257;-73
2022/02/27 08:43:59;;;;;;;24.17;16.10;;;;;;;2.10;70.10;99237.88;6258362;28;20693;-74
2022/02/27 08:47:02;;;;;;;29.63;16.60;;;;;;;2.04;69.79;99231.06;6274316;28;20233;-73
2022/02/27 08:50:05;;;;;;;25.80;15.73;;;;;;;2.08;69.96;99231.84;6243105;28;20311;-75
2022/02/27 08:53:11;;;;;;;25.17;16.17;;;;;;;2.39;68.51;99230.28;6274295;28;20234;-73
2022/02/27 08:56:14;;;;;;;24.23;15.63;;;;;;;2.55;67.23;99215.16;6274436;28;20305;-73
2022/02/27 08:59:17;;;;;;;23.77;14.63;;;;;;;3.07;66.14;99221.72;6257244;28;20402;-69
2022/02/27 09:02:19;;;;;;;28.93;17.70;;;;;;;3.45;65.31;99215.47;6274700;28;20267;-69
2022/02/27 09:05:22;;;;;;;27.13;17.27;;;;;;;3.75;65.41;99214.63;6256588;28;20397;-68
2022/02/27 09:08:24;;;;;;;25.77;17.10;;;;;;;4.16;64.96;99217.81;6241840;28;20242;-70
2022/02/27 09:11:26;;;;;;;28.03;17.50;;;;;;;4.31;62.73;99212.09;6254912;28;20227;-69
2022/02/27 09:14:28;;;;;;;27.63;17.87;;;;;;;4.20;63.15;99220.25;6273470;28;20707;-68
2022/02/27 09:17:30;;;;;;;23.67;16.40;;;;;;;4.08;62.71;99215.41;6275758;28;20242;-70
2022/02/27 09:20:32;;;;;;;26.53;16.47;;;;;;;3.97;62.65;99210.50;6273716;28;20712;-70
2022/02/27 09:23:35;;;;;;;28.10;17.43;;;;;;;4.39;62.61;99208.34;6257437;28;20241;-68
2022/02/27 09:26:38;;;;;;;25.93;16.10;;;;;;;4.79;61.40;99202.69;6276412;28;20317;-68
2022/02/27 09:29:40;;;;;;;21.13;15.10;;;;;;;5.20;60.95;99206.56;6278627;28;20224;-68
2022/02/27 09:32:43;;;;;;;25.03;16.80;;;;;;;5.53;60.58;99201.91;6266169;28;20237;-69
2022/02/27 09:35:45;;;;;;;25.27;17.63;;;;;;;5.16;60.25;99210.19;6260576;28;20259;-69
2022/02/27 09:38:47;;;;;;;24.63;16.03;;;;;;;5.27;59.84;99206.38;6259358;28;20230;-68
2022/02/27 09:41:50;;;;;;;27.47;20.47;;;;;;;5.70;59.55;99205.69;6271984;28;20545;-69
2022/02/27 09:44:53;;;;;;;24.63;16.07;;;;;;;6.04;58.27;99206.19;6260265;28;20242;-70
2022/02/27 09:47:57;;;;;;;25.17;15.73;;;;;;;5.63;58.27;99205.06;6278384;28;20240;-68
2022/02/27 09:51:00;;;;;;;23.17;16.07;;;;;;;5.36;56.95;99206.03;6261316;28;20347;-69
2022/02/27 09:54:03;;;;;;;24.23;16.60;;;;;;;5.59;57.77;99210.47;6259102;28;20350;-69
2022/02/27 09:57:05;;;;;;;23.47;15.20;;;;;;;5.75;56.95;99204.63;6260608;28;20284;-70
2022/02/27 10:00:18;;;;;;;25.73;16.67;;;;;;;6.07;55.78;99206.09;6261156;28;20702;-70
2022/02/27 10:03:27;;;;;;;24.20;16.10;;;;;;;5.88;57.16;99212.94;6259316;28;20231;-68
2022/02/27 10:06:47;;;;;;;23.77;17.17;;;;;;;5.93;56.87;99217.06;6277165;28;20227;-68
2022/02/27 10:09:49;;;;;;;25.83;17.00;;;;;;;6.08;55.61;99210.41;6277186;28;20745;-69
2022/02/27 10:12:54;;;;;;;25.50;16.97;;;;;;;5.79;55.84;99208.81;6280723;28;20749;-70
2022/02/27 10:16:12;;;;;;;24.63;17.20;;;;;;;6.35;55.36;99205.03;6233090;28;20236;-70
2022/02/27 10:19:21;;;;;;;24.70;15.23;;;;;;;6.43;55.00;99189.84;6231967;28;20251;-69
2022/02/27 10:22:32;;;;;;;24.47;15.53;;;;;;;6.78;53.30;99186.66;6230204;28;20232;-72
2022/02/27 10:25:38;;;;;;;22.10;17.07;;;;;;;6.82;54.04;99193.47;6248321;28;20247;-71
2022/02/27 10:28:41;;;;;;;24.83;16.27;;;;;;;6.99;53.41;99188.38;6237345;28;20641;-70
2022/02/27 10:31:45;;;;;;;25.90;17.13;;;;;;;7.12;54.38;99180.00;6261648;28;20227;-69
2022/02/27 10:34:51;;;;;;;26.50;16.53;;;;;;;6.62;53.41;99183.78;6233485;28;20228;-72
2022/02/27 10:37:55;;;;;;;28.40;17.03;;;;;;;6.58;52.62;99181.38;6218808;28;20763;-73
2022/02/27 10:40:57;;;;;;;23.63;16.13;;;;;;;6.73;53.16;99174.63;6223330;28;20323;-74
2022/02/27 10:44:02;;;;;;;24.13;15.97;;;;;;;6.85;53.88;99174.16;6228709;28;20229;-71
2022/02/27 10:47:11;;;;;;;21.77;16.20;;;;;;;7.25;52.45;99168.06;6255213;28;20236;-74
2022/02/27 10:50:19;;;;;;;23.50;16.60;;;;;;;7.55;51.43;99158.84;6253316;28;20217;-70
2022/02/27 10:53:42;;;;;;;24.53;18.57;;;;;;;7.28;51.31;99162.69;6236964;28;20298;-70
2022/02/27 10:56:48;;;;;;;25.87;19.03;;;;;;;6.93;52.06;99175.53;6240611;28;20228;-74
2022/02/27 10:59:50;;;;;;;25.20;18.10;;;;;;;6.46;52.71;99160.88;6228807;28;20340;-69
2022/02/27 11:03:02;;;;;;;27.47;19.20;;;;;;;6.27;55.99;99155.50;6234678;28;20232;-70
2022/02/27 11:06:09;;;;;;;24.83;18.53;;;;;;;6.17;54.38;99162.88;6238548;28;20224;-69
2022/02/27 11:09:13;;;;;;;24.70;17.27;;;;;;;6.54;52.80;99149.16;6218873;28;20701;-69
2022/02/27 11:12:20;;;;;;;26.00;17.43;;;;;;;6.61;51.77;99145.38;6196811;28;20688;-70
2022/02/27 11:15:23;;;;;;;26.23;18.43;;;;;;;7.08;51.68;99145.19;6231811;28;20251;-70
2022/02/27 11:18:28;;;;;;;25.23;17.93;;;;;;;7.23;50.82;99139.25;6243803;28;20251;-69
2022/02/27 11:21:37;;;;;;;26.80;17.93;;;;;;;6.95;51.11;99136.97;6221205;28;20217;-70
2022/02/27 11:24:43;;;;;;;27.27;20.60;;;;;;;7.18;52.43;99133.34;6219279;28;20613;-70
2022/02/27 11:27:55;;;;;;;28.43;18.63;;;;;;;7.82;50.58;99133.09;6229629;28;20226;-71
2022/02/27 11:31:13;;;;;;;21.97;16.33;;;;;;;8.21;49.61;99124.25;6243083;28;20225;-72
2022/02/27 11:34:41;;;;;;;25.13;16.40;;;;;;;7.72;48.23;99130.03;6254910;28;20234;-69
2022/02/27 11:37:52;;;;;;;22.00;14.17;;;;;;;7.72;48.93;99118.66;6227410;28;20323;-70
2022/02/27 11:41:13;;;;;;;24.53;18.13;;;;;;;8.00;48.80;99115.59;6220974;28;20235;-70
2022/02/27 11:44:17;;;;;;;27.67;18.83;;;;;;;7.89;49.45;99108.22;6234557;28;20259;-71
2022/02/27 11:47:21;;;;;;;25.83;17.43;;;;;;;7.54;49.64;99107.22;6219926;28;20229;-72
2022/02/27 11:50:31;;;;;;;30.10;17.73;;;;;;;7.96;48.59;99103.56;6232206;28;20219;-69
2022/02/27 11:53:48;;;;;;;22.70;16.30;;;;;;;8.30;47.98;99105.41;6252416;28;20238;-68
2022/02/27 11:57:00;;;;;;;26.97;18.73;;;;;;;8.18;47.71;99109.50;6216364;28;20255;-69
2022/02/27 12:00:19;;;;;;;21.90;15.87;;;;;;;8.26;48.00;99103.88;6216492;28;20227;-68
2022/02/27 12:03:36;;;;;;;19.40;14.47;;;;;;;8.68;46.00;99098.31;6254621;28;20229;-68
2022/02/27 12:07:00;;;;;;;22.23;14.90;;;;;;;9.08;45.21;99091.91;6257666;28;20258;-68
2022/02/27 12:10:04;;;;;;;22.80;16.13;;;;;;;9.13;45.54;99088.06;6234420;28;20238;-68
2022/02/27 12:13:25;;;;;;;23.77;16.57;;;;;;;8.40;45.82;99085.66;6236433;28;20241;-69
2022/02/27 12:16:40;;;;;;;22.70;16.40;;;;;;;8.47;47.08;99094.97;6239352;28;20236;-68
2022/02/27 12:19:45;;;;;;;23.00;15.93;;;;;;;9.18;45.94;99080.78;6263301;28;20313;-69
2022/02/27 12:22:48;;;;;;;19.57;14.10;;;;;;;9.07;44.44;99085.78;6255596;28;20256;-69
2022/02/27 12:25:52;;;;;;;20.13;14.23;;;;;;;9.26;42.63;99088.28;6260078;28;20315;-69
2022/02/27 12:28:58;;;;;;;22.37;17.93;;;;;;;9.58;42.30;99074.22;6239370;28;20225;-68
2022/02/27 12:32:09;;;;;;;36.70;27.20;;;;;;;9.48;43.91;99074.84;6252626;28;20297;-68
2022/02/27 12:35:13;;;;;;;23.17;15.87;;;;;;;9.37;42.93;99075.41;6206332;28;20249;-69
2022/02/27 12:38:24;;;;;;;27.57;20.43;;;;;;;9.19;43.67;99079.84;6260289;28;20324;-69
2022/02/27 12:41:32;;;;;;;20.63;14.43;;;;;;;9.35;41.84;99074.63;6252164;28;20230;-69
2022/02/27 12:44:44;;;;;;;20.97;15.53;;;;;;;9.82;41.98;99072.06;6254610;28;20338;-69
2022/02/27 12:47:48;;;;;;;21.47;14.43;;;;;;;10.04;39.64;99061.19;6256955;28;20596;-68
2022/02/27 12:50:55;;;;;;;18.17;13.93;;;;;;;9.57;40.59;99069.06;6256140;28;20228;-69
2022/02/27 12:54:02;;;;;;;18.27;13.90;;;;;;;9.74;40.91;99066.38;6260925;28;20254;-69
2022/02/27 12:57:08;;;;;;;17.40;13.67;;;;;;;10.08;40.24;99056.59;6254315;28;20226;-70
2022/02/27 13:00:13;;;;;;;18.30;13.30;;;;;;;10.47;40.55;99048.22;6240424;28;20226;-69
2022/02/27 13:03:19;;;;;;;16.70;11.80;;;;;;;9.99;37.39;99056.16;6256435;28;20210;-69
2022/02/27 13:06:25;;;;;;;17.47;12.07;;;;;;;8.67;39.37;99060.63;6237725;28;20253;-71
2022/02/27 13:09:27;;;;;;;17.17;11.77;;;;;;;8.02;41.16;99067.31;6255319;28;20312;-70
2022/02/27 13:12:30;;;;;;;16.43;11.67;;;;;;;7.68;42.07;99061.94;6260980;28;20237;-70
2022/02/27 13:15:33;;;;;;;16.87;12.13;;;;;;;8.19;41.60;99060.38;6262687;28;20253;-70
2022/02/27 13:18:37;;;;;;;18.70;12.77;;;;;;;8.93;41.30;99051.38;6250354;28;20350;-69
2022/02/27 13:21:49;;;;;;;24.77;16.67;;;;;;;9.08;39.95;99044.50;6247693;28;20233;-70
2022/02/27 13:24:57;;;;;;;17.93;11.90;;;;;;;8.23;40.96;99059.31;6246104;28;20670;-70
2022/02/27 13:28:01;;;;;;;21.80;14.20;;;;;;;7.89;42.48;99055.66;6265494;28;20428;-70
2022/02/27 13:31:18;;;;;;;16.80;12.07;;;;;;;7.68;43.48;99049.66;6258301;28;20275;-71
2022/02/27 13:34:33;;;;;;;25.20;16.20;;;;;;;7.45;44.39;99049.88;6221843;28;20260;-70
2022/02/27 13:37:38;;;;;;;16.03;11.30;;;;;;;8.41;41.82;99047.91;6272191;28;20272;-67
2022/02/27 13:40:43;;;;;;;15.90;11.63;;;;;;;12.14;35.04;99025.50;6278024;28;20313;-66
2022/02/27 13:43:47;;;;;;;17.63;12.20;;;;;;;14.20;30.39;99024.44;6277717;28;20306;-66
2022/02/27 13:46:52;;;;;;;16.20;11.43;;;;;;;15.46;28.58;99017.44;6258616;28;20351;-67
2022/02/27 13:49:55;;;;;;;15.63;11.53;;;;;;;16.91;26.42;99017.91;6246552;28;20730;-65
2022/02/27 13:53:15;;;;;;;18.57;12.23;;;;;;;17.36;25.29;99014.94;6279399;28;20229;-65
2022/02/27 13:56:18;;;;;;;19.83;13.47;;;;;;;17.61;25.87;99009.16;6261003;28;20307;-65
2022/02/27 13:59:20;;;;;;;18.47;11.77;;;;;;;13.62;30.02;99021.53;6259703;28;20226;-64
2022/02/27 14:02:30;;;;;;;17.87;12.93;;;;;;;10.62;35.53;99027.03;6279113;28;20231;-64
2022/02/27 14:05:35;;;;;;;19.10;13.60;;;;;;;9.35;38.01;99037.75;6259606;28;20653;-64
2022/02/27 14:08:43;;;;;;;17.73;12.43;;;;;;;9.53;37.61;99028.84;6262985;28;20235;-63
2022/02/27 14:11:45;;;;;;;15.00;10.60;;;;;;;14.00;29.85;99002.00;6277096;28;20706;-63